Time;durP1;ratioP1;P1;durP2;ratioP2;P2;SDS_P1;SDS_P2;PMS_P1;PMS_P2;Temp;Humidity;BMP_temperature;BMP_pressure;BME280_temperature;BME280_humidity;BME280_pressure;Samples;Min_cycle;Max_cycle;Signal;HPM_P1;HPM_P2
2022/04/23 00:01:52;;;;;;;27.17;20.00;;;11.20;82.50;;;;;;5070979;28;20478;-74
2022/04/23 00:04:19;;;;;;;27.93;20.33;;;11.30;82.80;;;;;;5070456;28;20758;-76
2022/04/23 00:06:46;;;;;;;24.73;19.40;;;11.30;82.50;;;;;;5069474;28;20865;-74
2022/04/23 00:09:13;;;;;;;26.23;19.80;;;11.40;82.40;;;;;;5075810;28;20862;-71
2022/04/23 00:11:41;;;;;;;25.00;18.57;;;11.50;82.20;;;;;;5074818;28;20928;-75
2022/04/23 00:14:08;;;;;;;27.93;19.63;;;12.50;82.80;;;;;;5070940;28;20949;-73
2022/04/23 00:16:35;;;;;;;69.80;25.20;;;11.60;81.60;;;;;;5068686;28;20489;-75
2022/04/23 00:19:03;;;;;;;33.57;21.90;;;11.60;82.10;;;;;;5074312;28;20486;-72
2022/04/23 00:21:30;;;;;;;34.83;23.33;;;11.70;81.90;;;;;;5063748;28;20507;-75
2022/04/23 00:23:59;;;;;;;24.57;19.97;;;11.80;81.60;;;;;;5071753;28;20480;-81
2022/04/23 00:26:26;;;;;;;29.77;21.70;;;11.90;81.90;;;;;;5068735;28;20479;-78
2022/04/23 00:28:53;;;;;;;24.37;19.33;;;11.90;81.20;;;;;;5070776;28;20478;-74
2022/04/23 00:31:20;;;;;;;38.63;22.17;;;11.90;81.10;;;;;;5072190;28;20484;-78
2022/04/23 00:33:47;;;;;;;28.90;18.30;;;11.90;81.00;;;;;;5070887;28;20828;-73
2022/04/23 00:36:16;;;;;;;24.40;20.83;;;11.90;81.00;;;;;;5067322;28;20485;-73
2022/04/23 00:38:49;;;;;;;30.93;19.47;;;11.90;81.20;;;;;;5067184;28;21253;-73
2022/04/23 00:43:57;;;;;;;41.17;20.50;;;11.90;80.70;;;;;;5075972;28;20570;-74
2022/04/23 00:46:24;;;;;;;52.83;24.90;;;12.00;80.30;;;;;;5073169;28;20474;-75
2022/04/23 00:48:51;;;;;;;29.20;19.63;;;11.90;80.00;;;;;;5073542;28;20974;-75
2022/04/23 00:51:20;;;;;;;34.83;22.50;;;11.90;80.00;;;;;;5073293;28;20489;-77
2022/04/23 00:53:48;;;;;;;26.20;18.30;;;11.90;79.80;;;;;;5072258;28;20477;-77
2022/04/23 00:56:15;;;;;;;25.27;18.63;;;11.80;79.90;;;;;;5067580;28;20473;-73
2022/04/23 00:58:42;;;;;;;23.40;17.77;;;10.70;78.90;;;;;;5073881;28;20500;-74
2022/04/23 01:01:08;;;;;;;28.60;18.50;;;11.60;80.60;;;;;;5076990;28;20485;-77
2022/04/23 01:03:36;;;;;;;25.10;17.47;;;11.40;80.90;;;;;;5068062;28;21115;-74
2022/04/23 01:06:04;;;;;;;23.67;17.27;;;11.30;80.60;;;;;;5071198;28;20576;-76
2022/04/23 01:08:34;;;;;;;26.90;20.40;;;11.10;81.40;;;;;;5070819;28;20535;-74
2022/04/23 01:11:01;;;;;;;20.63;16.10;;;11.00;81.70;;;;;;5051602;28;20476;-75
2022/04/23 01:13:29;;;;;;;23.80;17.60;;;10.90;81.90;;;;;;5073439;28;20477;-74
2022/04/23 01:15:59;;;;;;;23.77;16.70;;;10.90;81.90;;;;;;5070683;28;21011;-77
2022/04/23 01:18:27;;;;;;;20.23;18.03;;;10.90;81.80;;;;;;5065353;28;20471;-75
2022/04/23 01:20:57;;;;;;;21.73;18.37;;;10.90;81.30;;;;;;5069486;28;20474;-75
2022/04/23 01:23:24;;;;;;;35.40;23.23;;;10.90;81.60;;;;;;5072470;28;21351;-73
2022/04/23 01:25:54;;;;;;;21.13;17.73;;;10.90;81.30;;;;;;5067318;28;20480;-74
2022/04/23 01:28:22;;;;;;;28.87;20.07;;;11.00;81.10;;;;;;5068489;28;20475;-74
2022/04/23 01:30:49;;;;;;;21.87;17.23;;;11.00;80.80;;;;;;5070101;28;20483;-72
2022/04/23 01:33:16;;;;;;;25.33;18.47;;;11.00;80.40;;;;;;5067055;28;20482;-72
2022/04/23 01:35:43;;;;;;;28.13;18.97;;;10.90;80.60;;;;;;5068074;28;20498;-77
2022/04/23 01:38:12;;;;;;;27.33;18.17;;;11.00;80.30;;;;;;5070223;28;20490;-75
2022/04/23 01:40:40;;;;;;;25.43;17.60;;;10.80;80.90;;;;;;5068122;28;20477;-77
2022/04/23 01:43:07;;;;;;;27.40;20.23;;;10.70;81.80;;;;;;5069009;28;20970;-75
2022/04/23 01:45:34;;;;;;;28.80;19.60;;;10.60;81.90;;;;;;5070008;28;20479;-74
2022/04/23 01:48:00;;;;;;;30.50;19.07;;;10.60;81.90;;;;;;5067279;28;20486;-76
2022/04/23 01:50:34;;;;;;;46.17;24.80;;;10.60;81.70;;;;;;5067912;28;20779;-71
2022/04/23 01:53:02;;;;;;;26.93;18.43;;;10.50;82.40;;;;;;5071984;28;20493;-76
2022/04/23 01:55:30;;;;;;;38.80;22.03;;;10.50;82.60;;;;;;5071343;28;20912;-75
2022/04/23 01:58:01;;;;;;;32.47;20.13;;;10.50;82.30;;;;;;5070883;28;20476;-71
2022/04/23 02:00:28;;;;;;;30.50;20.80;;;10.50;82.30;;;;;;5067973;28;20449;-74
2022/04/23 02:02:57;;;;;;;34.47;21.60;;;10.50;82.10;;;;;;5068195;28;20473;-73
2022/04/23 02:05:24;;;;;;;49.97;23.60;;;10.50;82.20;;;;;;5066338;28;20481;-73
2022/04/23 02:07:51;;;;;;;29.63;19.23;;;10.40;82.40;;;;;;5069665;28;20565;-74
2022/04/23 02:10:20;;;;;;;25.03;18.20;;;10.40;82.10;;;;;;5068942;28;20483;-75
2022/04/23 02:12:49;;;;;;;25.30;18.23;;;10.40;82.50;;;;;;5072948;28;20469;-74
2022/04/23 02:15:17;;;;;;;29.27;20.17;;;10.50;82.20;;;;;;5077532;28;20862;-74
2022/04/23 02:17:45;;;;;;;28.80;18.37;;;10.40;82.20;;;;;;5078427;28;20472;-77
2022/04/23 02:20:15;;;;;;;26.47;19.60;;;10.30;83.00;;;;;;5069668;28;20485;-73
2022/04/23 02:22:44;;;;;;;31.97;18.47;;;10.00;83.70;;;;;;5071887;28;20528;-75
2022/04/23 02:25:12;;;;;;;27.77;18.57;;;9.90;85.30;;;;;;5074767;28;20489;-78
2022/04/23 02:27:43;;;;;;;25.97;18.77;;;8.10;84.20;;;;;;5071105;28;20497;-76
2022/04/23 02:30:12;;;;;;;30.47;20.30;;;9.90;85.70;;;;;;5069595;28;21160;-77
2022/04/23 02:32:39;;;;;;;30.00;20.13;;;;;;;;;;5077050;28;20479;-77
2022/04/23 02:35:07;;;;;;;29.50;18.20;;;9.90;85.00;;;;;;5070040;28;20476;-75
2022/04/23 02:37:35;;;;;;;37.10;21.27;;;10.00;84.30;;;;;;5075675;28;20473;-75
2022/04/23 02:40:04;;;;;;;43.97;21.50;;;10.00;84.00;;;;;;5078249;28;21220;-75
2022/04/23 02:42:31;;;;;;;30.30;19.47;;;10.10;83.20;;;;;;5070725;28;21635;-75
2022/04/23 02:45:00;;;;;;;24.00;17.80;;;10.10;82.50;;;;;;5062666;28;20581;-78
2022/04/23 02:47:29;;;;;;;32.60;22.77;;;10.10;82.20;;;;;;5083205;28;20496;-77
2022/04/23 02:49:57;;;;;;;32.90;18.53;;;10.00;81.90;;;;;;5070550;28;20826;-78
2022/04/23 02:52:24;;;;;;;47.47;24.80;;;10.10;81.80;;;;;;5078242;28;20488;-77
2022/04/23 02:54:51;;;;;;;29.47;19.50;;;10.00;82.10;;;;;;5072479;28;20574;-76
2022/04/23 02:57:24;;;;;;;74.70;26.07;;;9.90;83.40;;;;;;5061268;28;20483;-72
2022/04/23 02:59:50;;;;;;;30.17;20.90;;;9.90;84.00;;;;;;5077607;28;21022;-75
2022/04/23 03:02:17;;;;;;;28.50;20.60;;;9.80;84.90;;;;;;5079145;28;20488;-74
2022/04/23 03:04:45;;;;;;;38.23;23.20;;;9.70;85.10;;;;;;5070822;28;20472;-78
2022/04/23 03:07:12;;;;;;;38.33;22.10;;;9.70;85.10;;;;;;5071592;28;20490;-77
2022/04/23 03:09:39;;;;;;;25.93;19.10;;;9.70;83.90;;;;;;5076098;28;20493;-74
2022/04/23 03:12:06;;;;;;;31.30;21.07;;;9.80;84.30;;;;;;5068596;28;20478;-82
2022/04/23 03:14:33;;;;;;;55.37;25.70;;;9.80;83.70;;;;;;5070022;28;20586;-71
2022/04/23 03:17:00;;;;;;;31.70;22.00;;;9.80;83.70;;;;;;5073970;28;20497;-76
2022/04/23 03:19:26;;;;;;;44.80;23.67;;;9.70;83.90;;;;;;5074217;28;20486;-75
2022/04/23 03:21:57;;;;;;;31.40;21.53;;;9.70;84.50;;;;;;5071132;28;20501;-76
2022/04/23 03:24:24;;;;;;;61.43;28.43;;;9.70;84.60;;;;;;5052397;28;20880;-75
2022/04/23 03:26:51;;;;;;;34.97;23.20;;;9.70;84.60;;;;;;5085306;28;20480;-75
2022/04/23 03:29:18;;;;;;;31.00;21.67;;;9.60;84.70;;;;;;5064853;28;20483;-76
2022/04/23 03:31:45;;;;;;;32.23;21.90;;;9.60;84.70;;;;;;5069785;28;20482;-73
2022/04/23 03:34:12;;;;;;;29.50;21.40;;;9.60;85.00;;;;;;5073264;28;20473;-73
2022/04/23 03:36:39;;;;;;;36.27;23.77;;;9.60;85.30;;;;;;5072511;28;21008;-75
2022/04/23 03:39:11;;;;;;;33.77;21.90;;;9.60;84.80;;;;;;5073465;28;20589;-78
2022/04/23 03:41:37;;;;;;;40.60;21.60;;;9.60;84.60;;;;;;5066862;28;20480;-74
2022/04/23 03:44:05;;;;;;;57.37;25.10;;;9.60;83.90;;;;;;5072813;28;20481;-73
2022/04/23 03:46:32;;;;;;;51.13;25.67;;;9.60;84.50;;;;;;5076561;28;20519;-79
2022/04/23 03:48:59;;;;;;;33.73;24.17;;;9.60;84.20;;;;;;5074379;28;20518;-75
2022/04/23 03:51:27;;;;;;;44.10;24.87;;;9.50;85.00;;;;;;5076417;28;20488;-76
2022/04/23 03:53:53;;;;;;;54.60;25.50;;;9.40;85.10;;;;;;5070085;28;20821;-75
2022/04/23 03:56:21;;;;;;;35.40;24.17;;;9.40;85.70;;;;;;5076095;28;20770;-77
2022/04/23 03:58:49;;;;;;;34.47;22.20;;;9.40;85.90;;;;;;5073331;28;20473;-75
2022/04/23 04:01:17;;;;;;;32.30;21.83;;;9.30;86.00;;;;;;5063795;28;20982;-78
2022/04/23 04:03:43;;;;;;;39.50;25.40;;;9.30;85.50;;;;;;5070323;28;20584;-74
2022/04/23 04:06:10;;;;;;;36.63;23.57;;;9.20;86.50;;;;;;5071794;28;20477;-72
2022/04/23 04:08:37;;;;;;;39.57;24.97;;;9.20;86.90;;;;;;5060059;28;20997;-72
2022/04/23 04:11:05;;;;;;;35.80;23.20;;;9.20;87.00;;;;;;5076610;28;20486;-72
2022/04/23 04:13:33;;;;;;;45.60;28.33;;;9.20;87.20;;;;;;5072021;28;20468;-75
2022/04/23 04:16:00;;;;;;;40.27;23.47;;;9.20;87.10;;;;;;5065825;28;20489;-79
2022/04/23 04:18:28;;;;;;;43.73;26.23;;;9.20;86.30;;;;;;5070145;28;20484;-77
2022/04/23 04:20:56;;;;;;;39.10;24.67;;;9.20;86.70;;;;;;5067910;28;20504;-75
2022/04/23 04:23:24;;;;;;;33.73;23.33;;;9.20;86.00;;;;;;5079850;28;20550;-75
2022/04/23 04:25:51;;;;;;;39.30;24.40;;;9.20;86.60;;;;;;5072290;28;20474;-74
2022/04/23 04:28:18;;;;;;;35.17;24.57;;;9.20;85.80;;;;;;5062687;28;20484;-73
2022/04/23 04:33:33;;;;;;;44.87;27.30;;;9.10;87.20;;;;;;5072284;28;20710;-73
2022/04/23 04:36:06;;;;;;;37.73;23.57;;;9.00;87.40;;;;;;5070525;28;20488;-76
2022/04/23 04:38:33;;;;;;;47.33;27.10;;;9.00;87.10;;;;;;5070425;28;20485;-78
2022/04/23 04:41:00;;;;;;;42.43;26.40;;;;;;;;;;5065706;28;20481;-76
2022/04/23 04:43:27;;;;;;;79.70;27.47;;;;;;;;;;5067636;28;20504;-73
2022/04/23 04:45:55;;;;;;;47.53;26.60;;;9.00;86.20;;;;;;5069572;28;20802;-73
2022/04/23 04:48:22;;;;;;;36.80;26.00;;;9.00;87.20;;;;;;5083559;28;20464;-78
2022/04/23 04:50:50;;;;;;;35.17;23.23;;;9.10;86.70;;;;;;5084889;28;20477;-75
2022/04/23 04:53:18;;;;;;;37.63;25.10;;;9.20;86.90;;;;;;5068271;28;20477;-76
2022/04/23 04:55:44;;;;;;;40.83;23.73;;;9.10;87.40;;;;;;5070992;28;20467;-75
2022/04/23 04:58:11;;;;;;;38.67;26.13;;;9.20;87.30;;;;;;5071544;28;20487;-79
2022/04/23 05:00:38;;;;;;;51.13;26.70;;;9.30;86.60;;;;;;5074276;28;20485;-77
2022/04/23 05:03:06;;;;;;;52.87;27.40;;;9.30;87.10;;;;;;5079117;28;21009;-80
2022/04/23 05:05:33;;;;;;;49.07;27.93;;;;;;;;;;5078620;28;20814;-80
2022/04/23 05:08:00;;;;;;;78.43;26.57;;;;;;;;;;5077444;28;20563;-75
2022/04/23 05:10:28;;;;;;;48.47;27.23;;;9.40;86.30;;;;;;5080803;28;20480;-79
2022/04/23 05:12:54;;;;;;;53.87;28.67;;;9.40;87.10;;;;;;5077567;28;20518;-79
2022/04/23 05:15:21;;;;;;;57.53;30.07;;;9.40;87.70;;;;;;5070383;28;20480;-76
2022/04/23 05:17:48;;;;;;;40.83;26.33;;;9.40;87.50;;;;;;5075810;28;20892;-78
2022/04/23 05:20:17;;;;;;;42.60;26.10;;;9.40;87.90;;;;;;5071872;28;20489;-78
2022/04/23 05:22:44;;;;;;;39.27;24.13;;;9.50;88.60;;;;;;5077324;28;21510;-79
2022/04/23 05:25:13;;;;;;;42.20;26.37;;;9.50;88.60;;;;;;5073615;28;20483;-76
2022/04/23 05:27:40;;;;;;;42.63;26.87;;;9.60;89.10;;;;;;5075050;28;20976;-75
2022/04/23 05:30:08;;;;;;;41.20;26.60;;;9.60;89.10;;;;;;5075434;28;20980;-77
2022/04/23 05:32:35;;;;;;;52.10;27.23;;;9.70;89.50;;;;;;5076826;28;20477;-73
2022/04/23 05:35:02;;;;;;;39.73;26.30;;;9.80;89.50;;;;;;5065320;28;20579;-80
2022/04/23 05:37:30;;;;;;;48.67;29.37;;;10.00;88.70;;;;;;5083856;28;20469;-79
2022/04/23 05:39:57;;;;;;;41.83;26.77;;;10.20;89.30;;;;;;5074882;28;20489;-81
2022/04/23 05:42:23;;;;;;;45.23;30.93;;;10.40;89.20;;;;;;5079709;28;20982;-76
2022/04/23 05:44:50;;;;;;;49.80;26.53;;;10.60;88.70;;;;;;5069094;28;21037;-74
2022/04/23 05:47:17;;;;;;;33.27;24.03;;;10.70;88.70;;;;;;5076507;28;21511;-77
2022/04/23 05:49:44;;;;;;;35.43;23.10;;;10.90;88.40;;;;;;5081411;28;20496;-74
2022/04/23 05:52:11;;;;;;;39.77;24.70;;;11.00;88.50;;;;;;5074476;28;20878;-77
2022/04/23 05:54:40;;;;;;;40.03;24.70;;;11.20;88.50;;;;;;5062065;28;20521;-74
2022/04/23 05:57:08;;;;;;;34.50;23.10;;;11.20;88.10;;;;;;5079459;28;20473;-74
2022/04/23 05:59:36;;;;;;;37.07;24.73;;;11.40;88.30;;;;;;5074580;28;20481;-79
2022/04/23 06:02:03;;;;;;;32.43;23.33;;;11.50;88.40;;;;;;5068495;28;20465;-77
2022/04/23 06:04:30;;;;;;;42.73;28.10;;;11.70;88.00;;;;;;5065379;28;21001;-79
2022/04/23 06:06:57;;;;;;;31.87;22.10;;;11.80;87.40;;;;;;5071788;28;20582;-74
2022/04/23 06:09:23;;;;;;;53.80;27.73;;;11.60;86.90;;;;;;5070992;28;20480;-77
2022/04/23 06:11:51;;;;;;;31.90;23.40;;;12.10;87.80;;;;;;5076002;28;20482;-73
2022/04/23 06:14:19;;;;;;;32.73;23.80;;;12.30;87.60;;;;;;5073333;28;20467;-77
2022/04/23 06:16:45;;;;;;;31.60;21.73;;;12.50;87.10;;;;;;5078679;28;20485;-74
2022/04/23 06:19:12;;;;;;;31.30;22.87;;;12.70;86.60;;;;;;5070466;28;20496;-77
2022/04/23 06:21:39;;;;;;;34.30;19.90;;;12.80;86.40;;;;;;5073680;28;20488;-75
2022/04/23 06:24:06;;;;;;;27.57;20.00;;;12.90;86.60;;;;;;5070934;28;20509;-73
2022/04/23 06:26:33;;;;;;;29.00;21.40;;;12.90;86.50;;;;;;5069814;28;20479;-76
2022/04/23 06:29:01;;;;;;;32.50;19.60;;;13.00;86.20;;;;;;5074672;28;21120;-74
2022/04/23 06:31:28;;;;;;;54.00;23.93;;;13.10;86.40;;;;;;5072375;28;21257;-77
2022/04/23 06:33:55;;;;;;;29.70;20.60;;;13.20;87.10;;;;;;5077373;28;20480;-73
2022/04/23 06:36:22;;;;;;;48.93;25.70;;;13.40;87.10;;;;;;5071150;28;20490;-78
2022/04/23 06:38:48;;;;;;;33.60;20.90;;;13.70;87.50;;;;;;5070095;28;20485;-73
2022/04/23 06:41:15;;;;;;;23.80;17.17;;;14.10;86.50;;;;;;5073579;28;20482;-79
2022/04/23 06:43:43;;;;;;;23.60;15.33;;;14.20;85.30;;;;;;5077223;28;20497;-75
2022/04/23 06:46:11;;;;;;;24.10;18.23;;;14.20;84.50;;;;;;5076520;28;20487;-73
2022/04/23 06:48:39;;;;;;;20.13;15.43;;;14.30;85.70;;;;;;5078050;28;21069;-78
2022/04/23 06:51:05;;;;;;;16.00;13.77;;;14.30;85.30;;;;;;5069494;28;20490;-76
2022/04/23 06:53:32;;;;;;;14.67;11.73;;;14.40;84.50;;;;;;5078655;28;21031;-75
2022/04/23 06:56:01;;;;;;;18.70;13.47;;;14.50;84.30;;;;;;5072733;28;20483;-74
2022/04/23 06:58:28;;;;;;;59.30;17.80;;;14.40;83.40;;;;;;5075425;28;20865;-77
2022/04/23 07:00:54;;;;;;;13.50;9.10;;;14.40;83.90;;;;;;5070803;28;20486;-73
2022/04/23 07:03:23;;;;;;;21.20;13.03;;;14.30;83.90;;;;;;5066495;28;20488;-76
2022/04/23 07:05:49;;;;;;;16.47;12.37;;;14.30;83.40;;;;;;5074853;28;20499;-75
2022/04/23 07:08:17;;;;;;;21.90;15.60;;;14.30;83.70;;;;;;5063138;28;20510;-74
2022/04/23 07:10:44;;;;;;;16.73;11.90;;;14.40;84.50;;;;;;5079435;28;20481;-76
2022/04/23 07:13:11;;;;;;;19.03;15.37;;;14.50;84.00;;;;;;5073631;28;20493;-75
2022/04/23 07:15:39;;;;;;;21.00;14.63;;;14.50;83.60;;;;;;5075048;28;20508;-79
2022/04/23 07:18:07;;;;;;;19.67;15.30;;;14.60;83.70;;;;;;5069822;28;20486;-74
2022/04/23 07:20:36;;;;;;;18.83;14.10;;;14.70;84.30;;;;;;5063348;28;20486;-77
2022/04/23 07:25:47;;;;;;;19.67;14.80;;;15.10;84.60;;;;;;5077064;28;20507;-79
2022/04/23 07:28:13;;;;;;;21.60;17.07;;;15.30;83.40;;;;;;5070705;28;20485;-79
2022/04/23 07:30:40;;;;;;;17.90;14.67;;;15.50;83.30;;;;;;5068620;28;20497;-73
2022/04/23 07:33:07;;;;;;;20.37;12.57;;;15.60;82.00;;;;;;5073061;28;21066;-76
2022/04/23 07:38:21;;;;;;;21.63;15.93;;;15.50;81.40;;;;;;5066459;28;20496;-77
2022/04/23 07:40:49;;;;;;;18.80;14.10;;;15.50;82.60;;;;;;5073599;28;20477;-75
2022/04/23 07:43:17;;;;;;;22.57;17.47;;;15.40;82.20;;;;;;5071931;28;20478;-74
2022/04/23 07:45:45;;;;;;;23.70;16.20;;;15.50;81.90;;;;;;5074044;28;20480;-76
2022/04/23 07:48:12;;;;;;;20.63;17.10;;;15.50;82.30;;;;;;5062651;28;20485;-75
2022/04/23 07:50:42;;;;;;;21.43;16.93;;;15.60;82.00;;;;;;5086881;28;20489;-79
2022/04/23 07:53:11;;;;;;;18.43;13.10;;;15.70;81.50;;;;;;5070598;28;21022;-76
2022/04/23 07:55:38;;;;;;;21.33;16.10;;;15.80;81.60;;;;;;5069288;28;20822;-75
2022/04/23 07:58:09;;;;;;;17.70;15.30;;;15.90;81.50;;;;;;5068654;28;20479;-77
2022/04/23 08:00:36;;;;;;;21.00;15.67;;;15.90;81.50;;;;;;5073201;28;20903;-74
2022/04/23 08:03:04;;;;;;;21.17;13.50;;;15.90;80.90;;;;;;5075112;28;20480;-76
2022/04/23 08:05:31;;;;;;;23.30;15.40;;;15.80;80.70;;;;;;5058952;28;20476;-74
2022/04/23 08:08:00;;;;;;;16.23;12.70;;;15.80;80.60;;;;;;5068321;28;20505;-74
2022/04/23 08:10:27;;;;;;;21.77;16.70;;;15.70;80.60;;;;;;5069998;28;21188;-77
2022/04/23 08:13:00;;;;;;;16.93;14.60;;;15.70;81.00;;;;;;5070488;28;20525;-76
2022/04/23 08:15:28;;;;;;;22.87;17.47;;;15.80;81.70;;;;;;5070203;28;20482;-77
2022/04/23 08:17:54;;;;;;;16.80;14.60;;;15.80;81.60;;;;;;5069286;28;20520;-78
2022/04/23 08:20:21;;;;;;;18.63;12.80;;;15.90;81.50;;;;;;5079658;28;20482;-76
2022/04/23 08:22:48;;;;;;;17.30;14.13;;;15.70;80.80;;;;;;5071476;28;20979;-74
2022/04/23 08:25:16;;;;;;;26.07;17.40;;;15.90;81.50;;;;;;5075590;28;20492;-78
2022/04/23 08:27:51;;;;;;;23.07;16.00;;;16.10;82.40;;;;;;5072821;28;20481;-73
2022/04/23 08:30:35;;;;;;;19.93;16.23;;;16.30;81.80;;;;;;5074414;28;20484;-77
2022/04/23 08:33:02;;;;;;;21.77;17.07;;;16.40;80.90;;;;;;5079646;28;20972;-76
2022/04/23 08:35:28;;;;;;;25.33;13.37;;;16.50;82.30;;;;;;5075865;28;20954;-75
2022/04/23 08:37:55;;;;;;;17.20;14.20;;;16.60;80.30;;;;;;5069235;28;20478;-76
2022/04/23 08:40:23;;;;;;;24.67;18.77;;;16.70;80.10;;;;;;5073730;28;20522;-75
2022/04/23 08:42:52;;;;;;;15.70;13.80;;;16.80;80.50;;;;;;5077896;28;20485;-80
2022/04/23 08:45:19;;;;;;;24.47;17.57;;;17.10;80.30;;;;;;5075044;28;20485;-79
2022/04/23 08:47:46;;;;;;;22.43;15.90;;;17.20;79.30;;;;;;5084441;28;20508;-77
2022/04/23 08:50:13;;;;;;;11.60;9.10;;;17.20;80.20;;;;;;5068476;28;20601;-74
2022/04/23 08:52:43;;;;;;;18.77;13.30;;;17.30;78.60;;;;;;5076059;28;20489;-75
2022/04/23 08:55:14;;;;;;;16.83;13.23;;;17.40;77.70;;;;;;5074669;28;20987;-76
2022/04/23 08:57:43;;;;;;;17.97;14.10;;;17.50;78.30;;;;;;5073389;28;20993;-79
2022/04/23 09:00:14;;;;;;;19.43;14.60;;;17.60;78.20;;;;;;5075499;28;20473;-75
2022/04/23 09:02:42;;;;;;;21.10;15.77;;;17.60;78.30;;;;;;5073647;28;21364;-76
2022/04/23 09:05:10;;;;;;;21.07;14.20;;;17.60;77.70;;;;;;5071038;28;20502;-76
2022/04/23 09:07:36;;;;;;;20.40;12.60;;;17.50;77.60;;;;;;5076443;28;20570;-81
2022/04/23 09:10:05;;;;;;;16.60;12.93;;;17.70;77.10;;;;;;5074814;28;20471;-78
2022/04/23 09:12:33;;;;;;;38.60;18.37;;;17.70;76.40;;;;;;5080991;28;20477;-79
2022/04/23 09:23:39;;;;;;;22.13;14.40;;;17.80;76.50;;;;;;5074990;28;20478;-77
2022/04/23 09:23:40;;;;;;;70.43;20.20;;;;;;;;;;5072460;28;20474;-73
2022/04/23 09:26:16;;;;;;;14.83;12.87;;;18.00;75.10;;;;;;5070887;28;20971;-73
2022/04/23 09:28:46;;;;;;;15.10;12.90;;;18.30;78.30;;;;;;5073519;28;20466;-76
2022/04/23 09:31:16;;;;;;;15.40;12.20;;;18.30;76.80;;;;;;5073153;28;20510;-74
2022/04/23 09:33:44;;;;;;;15.97;13.23;;;18.40;74.10;;;;;;5070183;28;20506;-74
2022/04/23 09:36:12;;;;;;;19.90;13.77;;;18.40;74.80;;;;;;5070786;28;20892;-74
2022/04/23 09:38:39;;;;;;;15.03;12.20;;;18.40;74.90;;;;;;5082605;28;20486;-70
2022/04/23 09:41:16;;;;;;;17.23;12.60;;;18.40;74.50;;;;;;5076931;28;20471;-76
2022/04/23 09:43:46;;;;;;;16.00;12.97;;;18.40;73.90;;;;;;5070459;28;20539;-75
2022/04/23 09:46:14;;;;;;;16.57;14.73;;;18.40;74.70;;;;;;5068526;28;20890;-75
2022/04/23 09:48:44;;;;;;;14.23;12.70;;;18.40;75.80;;;;;;5077823;28;20493;-74
2022/04/23 09:51:24;;;;;;;17.93;14.10;;;18.80;77.50;;;;;;5080750;28;21304;-74
2022/04/23 09:53:53;;;;;;;17.10;13.80;;;19.00;77.70;;;;;;5071871;28;20487;-77
2022/04/23 09:56:22;;;;;;;23.77;16.10;;;19.30;76.20;;;;;;5075312;28;20473;-75
2022/04/23 09:58:49;;;;;;;18.37;14.50;;;19.40;73.00;;;;;;5073279;28;20489;-78
2022/04/23 10:01:19;;;;;;;15.00;11.60;;;19.40;74.00;;;;;;5086798;28;20497;-74
2022/04/23 10:03:49;;;;;;;15.93;11.90;;;19.30;74.20;;;;;;5072127;28;20829;-74
2022/04/23 10:06:19;;;;;;;16.03;13.17;;;19.30;73.40;;;;;;5069749;28;20563;-75
2022/04/23 10:08:49;;;;;;;18.23;12.50;;;19.40;73.90;;;;;;5077698;28;20489;-76
2022/04/23 10:11:20;;;;;;;14.43;11.97;;;19.30;74.00;;;;;;5080516;28;20570;-76
2022/04/23 10:13:51;;;;;;;21.57;14.47;;;19.00;73.60;;;;;;5073111;28;20482;-77
2022/04/23 10:16:20;;;;;;;14.03;12.67;;;19.00;74.40;;;;;;5069841;28;20482;-74
2022/04/23 10:18:47;;;;;;;12.13;9.10;;;19.00;73.90;;;;;;5060719;28;20484;-73
2022/04/23 10:21:20;;;;;;;18.80;14.67;;;18.90;77.50;;;;;;5071010;28;20482;-79
2022/04/23 10:23:58;;;;;;;13.70;12.17;;;18.60;72.90;;;;;;5065211;28;20482;-74
2022/04/23 10:26:34;;;;;;;21.90;14.90;;;18.80;75.10;;;;;;5070276;28;20896;-74
2022/04/23 10:29:02;;;;;;;13.40;12.00;;;19.00;75.70;;;;;;5070964;28;20469;-72
2022/04/23 10:31:30;;;;;;;14.27;12.87;;;19.00;74.50;;;;;;5072039;28;20470;-74
2022/04/23 10:33:56;;;;;;;14.53;11.40;;;19.10;75.40;;;;;;5077399;28;20837;-73
2022/04/23 10:36:23;;;;;;;16.67;14.60;;;19.10;73.40;;;;;;5067504;28;20485;-75
2022/04/23 10:39:11;;;;;;;13.93;12.53;;;19.00;73.20;;;;;;5074542;28;20484;-76
2022/04/23 10:41:37;;;;;;;11.63;10.53;;;19.00;73.70;;;;;;5074787;28;20481;-73
2022/04/23 10:44:05;;;;;;;13.23;11.97;;;19.20;76.00;;;;;;5077892;28;20474;-74
2022/04/23 10:46:46;;;;;;;14.70;13.33;;;19.30;74.50;;;;;;5067810;28;20726;-73
2022/04/23 10:49:16;;;;;;;14.00;12.00;;;19.20;72.70;;;;;;5067265;28;20511;-74
2022/04/23 10:51:50;;;;;;;13.33;12.03;;;19.30;74.00;;;;;;5069315;28;20482;-72
2022/04/23 10:54:20;;;;;;;13.30;11.97;;;19.30;73.40;;;;;;5065113;28;20478;-72
2022/04/23 10:56:51;;;;;;;14.70;13.20;;;19.30;73.70;;;;;;5066833;28;20494;-71
2022/04/23 10:59:39;;;;;;;16.03;14.40;;;19.30;73.50;;;;;;5073238;28;21284;-75
2022/04/23 11:02:13;;;;;;;12.90;11.60;;;19.60;75.60;;;;;;5073514;28;20479;-72
2022/04/23 11:13:26;;;;;;;16.23;12.00;;;19.90;72.40;;;;;;5056527;28;20853;-73
2022/04/23 11:16:24;;;;;;;11.87;10.67;;;19.90;72.50;;;;;;5064160;28;20480;-74
2022/04/23 11:18:53;;;;;;;13.40;11.63;;;20.00;74.80;;;;;;5060844;28;20475;-74
2022/04/23 11:21:23;;;;;;;15.10;13.57;;;20.20;74.60;;;;;;5069070;28;20484;-74
2022/04/23 11:23:51;;;;;;;10.53;7.60;;;20.40;72.90;;;;;;5078571;28;20482;-74
2022/04/23 11:26:22;;;;;;;13.77;12.37;;;20.30;74.30;;;;;;5072932;28;20970;-76
2022/04/23 11:28:58;;;;;;;12.27;11.07;;;20.40;73.50;;;;;;5071867;28;20673;-76
2022/04/23 11:31:25;;;;;;;17.83;14.17;;;;;;;;;;5064084;28;20575;-79
2022/04/23 11:33:55;;;;;;;10.87;9.77;;;20.50;73.40;;;;;;5068551;28;20497;-75
2022/04/23 11:36:26;;;;;;;16.10;12.13;;;20.10;70.60;;;;;;5063098;28;21128;-75
2022/04/23 11:38:53;;;;;;;11.13;9.97;;;20.20;71.40;;;;;;5067313;28;20493;-78
2022/04/23 11:41:30;;;;;;;10.27;9.17;;;20.10;73.30;;;;;;5071732;28;20529;-79
2022/04/23 11:43:57;;;;;;;9.53;8.63;;;20.20;75.10;;;;;;5076152;28;20882;-80
2022/04/23 11:46:24;;;;;;;19.20;13.40;;;20.00;71.10;;;;;;5068880;28;20476;-76
2022/04/23 11:48:55;;;;;;;9.80;8.53;;;20.10;73.60;;;;;;5075518;28;20502;-77
2022/04/23 11:51:22;;;;;;;9.00;8.10;;;19.70;71.10;;;;;;5071507;28;20485;-75
2022/04/23 11:53:56;;;;;;;8.40;7.60;;;19.70;71.80;;;;;;5079773;28;20491;-79
2022/04/23 11:56:32;;;;;;;12.33;10.20;;;19.70;72.80;;;;;;5071205;28;20893;-76
2022/04/23 11:59:01;;;;;;;9.23;8.37;;;19.80;72.20;;;;;;5071328;28;20986;-78
2022/04/23 12:01:28;;;;;;;12.50;9.93;;;19.80;72.60;;;;;;5072648;28;20470;-76
2022/04/23 12:03:58;;;;;;;10.90;8.73;;;19.70;72.00;;;;;;5071432;28;20491;-77
2022/04/23 12:06:26;;;;;;;17.97;11.53;;;19.70;72.40;;;;;;5065948;28;20546;-75
2022/04/23 12:09:07;;;;;;;11.03;7.97;;;19.60;70.40;;;;;;5071855;28;20482;-79
2022/04/23 12:11:34;;;;;;;9.93;8.93;;;19.50;70.70;;;;;;5073553;28;20484;-75
2022/04/23 12:14:02;;;;;;;10.53;7.80;;;19.30;71.20;;;;;;5074076;28;20485;-77
2022/04/23 12:16:35;;;;;;;15.63;12.23;;;19.30;71.40;;;;;;5077852;28;20495;-79
2022/04/23 12:19:05;;;;;;;8.67;7.87;;;19.30;72.30;;;;;;5065006;28;20496;-77
2022/04/23 12:21:33;;;;;;;12.17;10.00;;;19.20;70.90;;;;;;5073345;28;20479;-78
2022/04/23 12:24:01;;;;;;;7.97;7.17;;;19.30;71.10;;;;;;5068463;28;20568;-77
2022/04/23 12:26:32;;;;;;;11.00;9.90;;;19.30;72.20;;;;;;5066902;28;20481;-75
2022/04/23 12:43:28;;;;;;;7.60;6.90;;;17.20;68.60;;;;;;5064341;28;20496;-78
2022/04/23 12:46:10;;;;;;;7.70;7.03;;;19.00;71.40;;;;;;5065330;27;21048;-77
2022/04/23 12:49:03;;;;;;;12.70;8.47;;;18.80;71.40;;;;;;5073621;28;20480;-77
2022/04/23 12:51:31;;;;;;;8.97;7.93;;;18.70;72.50;;;;;;5042186;28;20470;-77
2022/04/23 12:53:58;;;;;;;9.33;7.67;;;18.60;73.20;;;;;;5093384;28;21038;-75
2022/04/23 12:56:35;;;;;;;13.00;9.53;;;18.50;71.70;;;;;;5071728;28;20866;-75
2022/04/23 12:59:04;;;;;;;10.00;7.80;;;18.30;71.90;;;;;;5077657;28;20477;-79
2022/04/23 13:01:31;;;;;;;32.93;11.40;;;18.30;72.70;;;;;;5075828;28;21094;-79
2022/04/23 13:03:57;;;;;;;5.20;4.30;;;18.20;73.30;;;;;;5075950;28;20493;-77
2022/04/23 13:09:10;;;;;;;6.73;6.17;;;18.00;72.40;;;;;;5074095;28;21180;-77
2022/04/23 13:11:37;;;;;;;13.20;8.63;;;17.80;72.30;;;;;;5070302;28;21206;-78
2022/04/23 13:14:05;;;;;;;6.20;5.70;;;17.90;73.90;;;;;;5079741;28;20481;-76
2022/04/23 13:16:33;;;;;;;11.70;8.93;;;18.00;73.10;;;;;;5064653;28;20559;-78
2022/04/23 13:19:01;;;;;;;6.63;6.03;;;18.00;72.90;;;;;;5073508;28;20490;-74
2022/04/23 13:21:29;;;;;;;16.47;10.40;;;18.00;72.40;;;;;;5075456;28;20474;-75
2022/04/23 13:23:57;;;;;;;7.90;7.20;;;17.90;72.50;;;;;;5069558;28;20494;-76